sensor_id;sensor_type;location;lat;lon;timestamp;P1;durP1;ratioP1;P2;durP2;ratioP2
69170;SDS011;56279;47.902;12.308;2023-04-08T00:01:13;13.38;;;6.50;;
69170;SDS011;56279;47.902;12.308;2023-04-08T00:03:19;11.18;;;6.05;;
69170;SDS011;56279;47.902;12.308;2023-04-08T00:05:21;9.33;;;5.87;;
69170;SDS011;56279;47.902;12.308;2023-04-08T00:07:22;14.35;;;6.68;;
69170;SDS011;56279;47.902;12.308;2023-04-08T00:09:23;11.38;;;6.65;;
69170;SDS011;56279;47.902;12.308;2023-04-08T00:11:25;13.88;;;6.82;;
69170;SDS011;56279;47.902;12.308;2023-04-08T00:13:26;12.98;;;7.00;;
69170;SDS011;56279;47.902;12.308;2023-04-08T00:15:27;10.43;;;5.87;;
69170;SDS011;56279;47.902;12.308;2023-04-08T00:17:30;10.50;;;6.03;;
69170;SDS011;56279;47.902;12.308;2023-04-08T00:19:31;13.07;;;6.85;;
69170;SDS011;56279;47.902;12.308;2023-04-08T00:21:33;12.13;;;7.20;;
69170;SDS011;56279;47.902;12.308;2023-04-08T00:23:35;12.93;;;6.75;;
69170;SDS011;56279;47.902;12.308;2023-04-08T00:25:39;13.63;;;6.97;;
69170;SDS011;56279;47.902;12.308;2023-04-08T00:27:40;12.23;;;6.32;;
69170;SDS011;56279;47.902;12.308;2023-04-08T00:29:41;12.80;;;6.93;;
69170;SDS011;56279;47.902;12.308;2023-04-08T00:31:43;12.52;;;7.13;;
69170;SDS011;56279;47.902;12.308;2023-04-08T00:33:48;11.88;;;7.15;;
69170;SDS011;56279;47.902;12.308;2023-04-08T00:35:49;12.93;;;6.40;;
69170;SDS011;56279;47.902;12.308;2023-04-08T00:37:52;13.45;;;6.28;;
69170;SDS011;56279;47.902;12.308;2023-04-08T00:39:54;12.77;;;6.85;;
69170;SDS011;56279;47.902;12.308;2023-04-08T00:41:55;11.90;;;6.65;;
69170;SDS011;56279;47.902;12.308;2023-04-08T00:43:58;12.88;;;6.30;;
69170;SDS011;56279;47.902;12.308;2023-04-08T00:46:01;13.13;;;6.77;;
69170;SDS011;56279;47.902;12.308;2023-04-08T00:48:04;13.55;;;7.30;;
69170;SDS011;56279;47.902;12.308;2023-04-08T00:50:07;13.88;;;7.05;;
69170;SDS011;56279;47.902;12.308;2023-04-08T00:52:10;15.43;;;6.97;;
69170;SDS011;56279;47.902;12.308;2023-04-08T00:54:13;12.23;;;6.30;;
69170;SDS011;56279;47.902;12.308;2023-04-08T00:56:15;13.00;;;6.47;;
69170;SDS011;56279;47.902;12.308;2023-04-08T00:58:16;13.93;;;6.50;;
69170;SDS011;56279;47.902;12.308;2023-04-08T01:00:18;12.32;;;6.80;;
69170;SDS011;56279;47.902;12.308;2023-04-08T01:02:38;11.43;;;6.25;;
69170;SDS011;56279;47.902;12.308;2023-04-08T01:04:52;11.60;;;7.03;;
69170;SDS011;56279;47.902;12.308;2023-04-08T01:09:17;13.30;;;6.38;;
69170;SDS011;56279;47.902;12.308;2023-04-08T01:11:21;11.60;;;6.40;;
69170;SDS011;56279;47.902;12.308;2023-04-08T01:13:23;12.25;;;6.40;;
69170;SDS011;56279;47.902;12.308;2023-04-08T01:15:29;10.25;;;5.95;;
69170;SDS011;56279;47.902;12.308;2023-04-08T01:17:33;12.00;;;6.57;;
69170;SDS011;56279;47.902;12.308;2023-04-08T01:19:38;11.05;;;6.30;;
69170;SDS011;56279;47.902;12.308;2023-04-08T01:21:46;13.18;;;6.63;;
69170;SDS011;56279;47.902;12.308;2023-04-08T01:23:58;12.40;;;6.60;;
69170;SDS011;56279;47.902;12.308;2023-04-08T01:26:20;11.60;;;6.10;;
69170;SDS011;56279;47.902;12.308;2023-04-08T01:28:27;11.73;;;6.30;;
69170;SDS011;56279;47.902;12.308;2023-04-08T01:30:33;10.18;;;5.88;;
69170;SDS011;56279;47.902;12.308;2023-04-08T01:32:42;11.00;;;5.50;;
69170;SDS011;56279;47.902;12.308;2023-04-08T01:34:44;10.13;;;5.93;;
69170;SDS011;56279;47.902;12.308;2023-04-08T01:36:47;11.02;;;5.72;;
69170;SDS011;56279;47.902;12.308;2023-04-08T01:38:54;10.80;;;5.93;;
69170;SDS011;56279;47.902;12.308;2023-04-08T01:40:58;11.88;;;5.82;;
69170;SDS011;56279;47.902;12.308;2023-04-08T01:43:00;11.48;;;5.68;;
69170;SDS011;56279;47.902;12.308;2023-04-08T01:45:03;11.88;;;5.72;;
69170;SDS011;56279;47.902;12.308;2023-04-08T01:47:08;12.50;;;6.40;;
69170;SDS011;56279;47.902;12.308;2023-04-08T01:49:13;10.50;;;5.57;;
69170;SDS011;56279;47.902;12.308;2023-04-08T01:51:17;11.27;;;6.07;;
69170;SDS011;56279;47.902;12.308;2023-04-08T01:53:21;10.48;;;5.93;;
69170;SDS011;56279;47.902;12.308;2023-04-08T01:55:24;11.30;;;5.63;;
69170;SDS011;56279;47.902;12.308;2023-04-08T01:57:30;10.07;;;5.75;;
69170;SDS011;56279;47.902;12.308;2023-04-08T01:59:35;12.53;;;5.47;;
69170;SDS011;56279;47.902;12.308;2023-04-08T02:01:40;10.82;;;5.75;;
69170;SDS011;56279;47.902;12.308;2023-04-08T02:03:44;11.20;;;5.38;;
69170;SDS011;56279;47.902;12.308;2023-04-08T02:05:48;10.35;;;5.82;;
69170;SDS011;56279;47.902;12.308;2023-04-08T02:07:50;10.18;;;4.95;;
69170;SDS011;56279;47.902;12.308;2023-04-08T02:09:52;10.53;;;5.37;;
69170;SDS011;56279;47.902;12.308;2023-04-08T02:11:53;12.25;;;5.72;;
69170;SDS011;56279;47.902;12.308;2023-04-08T02:13:59;10.55;;;5.88;;
69170;SDS011;56279;47.902;12.308;2023-04-08T02:19:28;10.70;;;6.13;;
69170;SDS011;56279;47.902;12.308;2023-04-08T02:21:42;8.57;;;4.30;;
69170;SDS011;56279;47.902;12.308;2023-04-08T02:23:48;8.48;;;4.63;;
69170;SDS011;56279;47.902;12.308;2023-04-08T02:25:51;8.27;;;4.55;;
69170;SDS011;56279;47.902;12.308;2023-04-08T02:27:55;8.88;;;5.20;;
69170;SDS011;56279;47.902;12.308;2023-04-08T02:30:03;7.85;;;4.57;;
69170;SDS011;56279;47.902;12.308;2023-04-08T02:32:09;8.30;;;4.50;;
69170;SDS011;56279;47.902;12.308;2023-04-08T02:34:16;9.35;;;5.53;;
69170;SDS011;56279;47.902;12.308;2023-04-08T02:36:18;10.85;;;5.60;;
69170;SDS011;56279;47.902;12.308;2023-04-08T02:38:20;13.52;;;7.03;;
69170;SDS011;56279;47.902;12.308;2023-04-08T02:40:22;11.88;;;6.20;;
69170;SDS011;56279;47.902;12.308;2023-04-08T02:42:25;12.57;;;6.90;;
69170;SDS011;56279;47.902;12.308;2023-04-08T02:44:28;17.20;;;9.25;;
69170;SDS011;56279;47.902;12.308;2023-04-08T02:46:33;8.95;;;5.82;;
69170;SDS011;56279;47.902;12.308;2023-04-08T02:48:40;9.93;;;5.75;;
69170;SDS011;56279;47.902;12.308;2023-04-08T02:50:46;14.68;;;8.20;;
69170;SDS011;56279;47.902;12.308;2023-04-08T02:52:47;8.83;;;5.13;;
69170;SDS011;56279;47.902;12.308;2023-04-08T02:54:50;14.50;;;8.70;;
69170;SDS011;56279;47.902;12.308;2023-04-08T02:56:51;10.18;;;5.72;;
69170;SDS011;56279;47.902;12.308;2023-04-08T02:58:54;8.73;;;4.90;;
69170;SDS011;56279;47.902;12.308;2023-04-08T03:01:00;10.63;;;5.40;;
69170;SDS011;56279;47.902;12.308;2023-04-08T03:03:02;9.63;;;5.23;;
69170;SDS011;56279;47.902;12.308;2023-04-08T03:05:09;8.02;;;4.50;;
69170;SDS011;56279;47.902;12.308;2023-04-08T03:07:11;9.30;;;5.00;;
69170;SDS011;56279;47.902;12.308;2023-04-08T03:09:19;9.55;;;5.45;;
69170;SDS011;56279;47.902;12.308;2023-04-08T03:11:20;8.63;;;4.95;;
69170;SDS011;56279;47.902;12.308;2023-04-08T03:13:22;10.40;;;5.00;;
69170;SDS011;56279;47.902;12.308;2023-04-08T03:15:23;8.57;;;4.53;;
69170;SDS011;56279;47.902;12.308;2023-04-08T03:17:25;7.70;;;4.70;;
69170;SDS011;56279;47.902;12.308;2023-04-08T03:19:26;9.35;;;5.65;;
69170;SDS011;56279;47.902;12.308;2023-04-08T03:21:28;8.75;;;4.78;;
69170;SDS011;56279;47.902;12.308;2023-04-08T03:23:32;9.17;;;4.67;;
69170;SDS011;56279;47.902;12.308;2023-04-08T03:25:35;7.70;;;4.50;;
69170;SDS011;56279;47.902;12.308;2023-04-08T03:27:38;8.80;;;5.32;;
69170;SDS011;56279;47.902;12.308;2023-04-08T03:29:40;9.00;;;4.25;;
69170;SDS011;56279;47.902;12.308;2023-04-08T03:31:41;9.63;;;4.38;;
69170;SDS011;56279;47.902;12.308;2023-04-08T03:33:43;8.40;;;4.77;;
69170;SDS011;56279;47.902;12.308;2023-04-08T03:35:45;7.68;;;4.50;;
69170;SDS011;56279;47.902;12.308;2023-04-08T03:37:47;8.07;;;4.43;;
69170;SDS011;56279;47.902;12.308;2023-04-08T03:39:49;9.65;;;4.80;;
69170;SDS011;56279;47.902;12.308;2023-04-08T03:41:52;9.88;;;5.47;;
69170;SDS011;56279;47.902;12.308;2023-04-08T03:43:53;9.50;;;4.93;;
69170;SDS011;56279;47.902;12.308;2023-04-08T03:45:55;9.60;;;4.88;;
69170;SDS011;56279;47.902;12.308;2023-04-08T03:47:59;11.90;;;4.97;;
69170;SDS011;56279;47.902;12.308;2023-04-08T03:50:02;9.98;;;5.20;;
69170;SDS011;56279;47.902;12.308;2023-04-08T03:52:06;8.38;;;4.07;;
69170;SDS011;56279;47.902;12.308;2023-04-08T03:54:09;9.13;;;4.97;;
69170;SDS011;56279;47.902;12.308;2023-04-08T03:56:11;8.13;;;4.60;;
69170;SDS011;56279;47.902;12.308;2023-04-08T03:58:13;8.00;;;4.72;;
69170;SDS011;56279;47.902;12.308;2023-04-08T04:00:17;9.25;;;5.00;;
69170;SDS011;56279;47.902;12.308;2023-04-08T04:02:19;10.55;;;4.15;;
69170;SDS011;56279;47.902;12.308;2023-04-08T04:04:22;7.70;;;4.40;;
69170;SDS011;56279;47.902;12.308;2023-04-08T04:06:25;10.82;;;5.30;;
69170;SDS011;56279;47.902;12.308;2023-04-08T04:08:27;8.35;;;4.88;;
69170;SDS011;56279;47.902;12.308;2023-04-08T04:10:30;8.05;;;4.43;;
69170;SDS011;56279;47.902;12.308;2023-04-08T04:12:38;9.23;;;6.13;;
69170;SDS011;56279;47.902;12.308;2023-04-08T04:14:40;7.97;;;4.90;;
69170;SDS011;56279;47.902;12.308;2023-04-08T04:16:41;9.93;;;5.30;;
69170;SDS011;56279;47.902;12.308;2023-04-08T04:18:43;8.55;;;4.75;;
69170;SDS011;56279;47.902;12.308;2023-04-08T04:20:44;11.82;;;6.95;;
69170;SDS011;56279;47.902;12.308;2023-04-08T04:22:45;8.50;;;4.80;;
69170;SDS011;56279;47.902;12.308;2023-04-08T04:24:47;11.67;;;4.90;;
69170;SDS011;56279;47.902;12.308;2023-04-08T04:26:51;11.48;;;5.90;;
69170;SDS011;56279;47.902;12.308;2023-04-08T04:28:53;9.55;;;5.40;;
69170;SDS011;56279;47.902;12.308;2023-04-08T04:30:54;10.38;;;5.78;;
69170;SDS011;56279;47.902;12.308;2023-04-08T04:32:56;10.10;;;5.13;;
69170;SDS011;56279;47.902;12.308;2023-04-08T04:34:57;11.07;;;4.80;;
69170;SDS011;56279;47.902;12.308;2023-04-08T04:37:00;9.55;;;5.18;;
69170;SDS011;56279;47.902;12.308;2023-04-08T04:39:02;8.85;;;4.80;;
69170;SDS011;56279;47.902;12.308;2023-04-08T04:41:04;8.82;;;4.80;;
69170;SDS011;56279;47.902;12.308;2023-04-08T04:43:07;11.65;;;5.88;;
69170;SDS011;56279;47.902;12.308;2023-04-08T04:45:09;10.27;;;5.47;;
69170;SDS011;56279;47.902;12.308;2023-04-08T04:47:11;9.63;;;5.05;;
69170;SDS011;56279;47.902;12.308;2023-04-08T04:49:16;9.63;;;5.35;;
69170;SDS011;56279;47.902;12.308;2023-04-08T04:51:19;9.48;;;5.18;;
69170;SDS011;56279;47.902;12.308;2023-04-08T04:53:20;10.98;;;4.80;;
69170;SDS011;56279;47.902;12.308;2023-04-08T04:55:22;11.13;;;5.50;;
69170;SDS011;56279;47.902;12.308;2023-04-08T04:57:24;12.48;;;5.13;;
69170;SDS011;56279;47.902;12.308;2023-04-08T04:59:26;13.30;;;4.95;;
69170;SDS011;56279;47.902;12.308;2023-04-08T05:01:29;10.63;;;4.70;;
69170;SDS011;56279;47.902;12.308;2023-04-08T05:03:31;11.05;;;5.72;;
69170;SDS011;56279;47.902;12.308;2023-04-08T05:05:32;9.83;;;4.73;;
69170;SDS011;56279;47.902;12.308;2023-04-08T05:07:37;9.10;;;4.72;;
69170;SDS011;56279;47.902;12.308;2023-04-08T05:09:38;10.63;;;5.35;;
69170;SDS011;56279;47.902;12.308;2023-04-08T05:11:40;10.05;;;5.03;;
69170;SDS011;56279;47.902;12.308;2023-04-08T05:13:43;10.88;;;4.70;;
69170;SDS011;56279;47.902;12.308;2023-04-08T05:15:46;11.67;;;5.50;;
69170;SDS011;56279;47.902;12.308;2023-04-08T05:17:48;10.02;;;5.10;;
69170;SDS011;56279;47.902;12.308;2023-04-08T05:19:52;8.35;;;4.68;;
69170;SDS011;56279;47.902;12.308;2023-04-08T05:21:57;12.27;;;5.18;;
69170;SDS011;56279;47.902;12.308;2023-04-08T05:23:59;9.77;;;4.82;;
69170;SDS011;56279;47.902;12.308;2023-04-08T05:26:00;8.67;;;4.60;;
69170;SDS011;56279;47.902;12.308;2023-04-08T05:28:02;12.20;;;5.10;;
69170;SDS011;56279;47.902;12.308;2023-04-08T05:30:05;9.15;;;4.80;;
69170;SDS011;56279;47.902;12.308;2023-04-08T05:32:08;12.90;;;5.00;;
69170;SDS011;56279;47.902;12.308;2023-04-08T05:34:09;10.93;;;5.15;;
69170;SDS011;56279;47.902;12.308;2023-04-08T05:36:12;7.53;;;4.47;;
69170;SDS011;56279;47.902;12.308;2023-04-08T05:38:15;8.68;;;4.90;;
69170;SDS011;56279;47.902;12.308;2023-04-08T05:40:16;8.02;;;4.70;;
69170;SDS011;56279;47.902;12.308;2023-04-08T05:42:17;8.30;;;4.47;;
69170;SDS011;56279;47.902;12.308;2023-04-08T05:44:23;8.60;;;4.75;;
69170;SDS011;56279;47.902;12.308;2023-04-08T05:46:25;8.77;;;4.87;;
69170;SDS011;56279;47.902;12.308;2023-04-08T05:48:26;8.73;;;4.68;;
69170;SDS011;56279;47.902;12.308;2023-04-08T05:50:28;8.57;;;4.75;;
69170;SDS011;56279;47.902;12.308;2023-04-08T05:52:30;9.13;;;3.90;;
69170;SDS011;56279;47.902;12.308;2023-04-08T05:54:31;7.72;;;4.38;;
69170;SDS011;56279;47.902;12.308;2023-04-08T05:56:32;9.00;;;4.67;;
69170;SDS011;56279;47.902;12.308;2023-04-08T05:58:34;8.13;;;4.07;;
69170;SDS011;56279;47.902;12.308;2023-04-08T06:00:36;8.63;;;4.53;;
69170;SDS011;56279;47.902;12.308;2023-04-08T06:02:37;8.00;;;5.05;;
69170;SDS011;56279;47.902;12.308;2023-04-08T06:04:38;9.40;;;4.95;;
69170;SDS011;56279;47.902;12.308;2023-04-08T06:06:40;8.30;;;4.47;;
69170;SDS011;56279;47.902;12.308;2023-04-08T06:08:42;8.93;;;4.53;;
69170;SDS011;56279;47.902;12.308;2023-04-08T06:10:50;8.98;;;4.80;;
69170;SDS011;56279;47.902;12.308;2023-04-08T06:12:51;8.32;;;4.60;;
69170;SDS011;56279;47.902;12.308;2023-04-08T06:14:56;10.15;;;5.30;;
69170;SDS011;56279;47.902;12.308;2023-04-08T06:16:59;9.47;;;4.70;;
69170;SDS011;56279;47.902;12.308;2023-04-08T06:19:00;7.65;;;4.55;;
69170;SDS011;56279;47.902;12.308;2023-04-08T06:21:02;10.57;;;5.97;;
69170;SDS011;56279;47.902;12.308;2023-04-08T06:23:04;11.07;;;5.45;;
69170;SDS011;56279;47.902;12.308;2023-04-08T06:25:05;9.10;;;4.93;;
69170;SDS011;56279;47.902;12.308;2023-04-08T06:27:07;10.07;;;4.87;;
69170;SDS011;56279;47.902;12.308;2023-04-08T06:29:08;9.80;;;4.80;;
69170;SDS011;56279;47.902;12.308;2023-04-08T06:31:11;10.63;;;5.72;;
69170;SDS011;56279;47.902;12.308;2023-04-08T06:33:13;9.73;;;5.18;;
69170;SDS011;56279;47.902;12.308;2023-04-08T06:35:15;11.75;;;5.25;;
69170;SDS011;56279;47.902;12.308;2023-04-08T06:37:23;12.07;;;5.37;;
69170;SDS011;56279;47.902;12.308;2023-04-08T06:39:25;9.85;;;5.20;;
69170;SDS011;56279;47.902;12.308;2023-04-08T06:41:26;12.30;;;6.13;;
69170;SDS011;56279;47.902;12.308;2023-04-08T06:43:35;11.85;;;5.75;;
69170;SDS011;56279;47.902;12.308;2023-04-08T06:45:38;10.65;;;5.93;;
69170;SDS011;56279;47.902;12.308;2023-04-08T06:47:40;14.37;;;6.13;;
69170;SDS011;56279;47.902;12.308;2023-04-08T06:49:43;11.90;;;6.60;;
69170;SDS011;56279;47.902;12.308;2023-04-08T06:51:49;11.68;;;6.55;;
69170;SDS011;56279;47.902;12.308;2023-04-08T06:53:51;11.25;;;6.20;;
69170;SDS011;56279;47.902;12.308;2023-04-08T06:55:52;12.18;;;6.18;;
69170;SDS011;56279;47.902;12.308;2023-04-08T06:57:56;13.37;;;6.40;;
69170;SDS011;56279;47.902;12.308;2023-04-08T06:59:57;11.50;;;6.28;;
69170;SDS011;56279;47.902;12.308;2023-04-08T07:02:00;12.15;;;6.13;;
69170;SDS011;56279;47.902;12.308;2023-04-08T07:04:01;11.70;;;6.72;;
69170;SDS011;56279;47.902;12.308;2023-04-08T07:06:04;10.95;;;6.32;;
69170;SDS011;56279;47.902;12.308;2023-04-08T07:08:07;10.93;;;6.00;;
69170;SDS011;56279;47.902;12.308;2023-04-08T07:10:09;11.40;;;6.22;;
69170;SDS011;56279;47.902;12.308;2023-04-08T07:12:11;16.52;;;8.07;;
69170;SDS011;56279;47.902;12.308;2023-04-08T07:14:12;12.48;;;6.25;;
69170;SDS011;56279;47.902;12.308;2023-04-08T07:16:14;11.93;;;6.57;;
69170;SDS011;56279;47.902;12.308;2023-04-08T07:18:19;15.20;;;6.80;;
69170;SDS011;56279;47.902;12.308;2023-04-08T07:20:22;12.45;;;6.60;;
69170;SDS011;56279;47.902;12.308;2023-04-08T07:22:29;12.88;;;7.50;;
69170;SDS011;56279;47.902;12.308;2023-04-08T07:24:30;13.00;;;7.22;;
69170;SDS011;56279;47.902;12.308;2023-04-08T07:26:34;13.68;;;7.57;;
69170;SDS011;56279;47.902;12.308;2023-04-08T07:28:37;13.43;;;7.53;;
69170;SDS011;56279;47.902;12.308;2023-04-08T07:30:40;13.77;;;7.70;;
69170;SDS011;56279;47.902;12.308;2023-04-08T07:32:43;14.20;;;7.78;;
69170;SDS011;56279;47.902;12.308;2023-04-08T07:34:44;13.35;;;6.95;;
69170;SDS011;56279;47.902;12.308;2023-04-08T07:36:46;15.48;;;8.02;;
69170;SDS011;56279;47.902;12.308;2023-04-08T07:38:47;15.03;;;7.73;;
69170;SDS011;56279;47.902;12.308;2023-04-08T07:40:49;14.68;;;7.60;;
69170;SDS011;56279;47.902;12.308;2023-04-08T07:42:52;16.75;;;8.90;;
69170;SDS011;56279;47.902;12.308;2023-04-08T07:44:57;16.05;;;7.88;;
69170;SDS011;56279;47.902;12.308;2023-04-08T07:46:58;14.48;;;8.63;;
69170;SDS011;56279;47.902;12.308;2023-04-08T07:49:00;16.20;;;8.03;;
69170;SDS011;56279;47.902;12.308;2023-04-08T07:51:03;17.88;;;8.57;;
69170;SDS011;56279;47.902;12.308;2023-04-08T07:53:06;16.15;;;8.15;;
69170;SDS011;56279;47.902;12.308;2023-04-08T07:55:10;15.82;;;7.85;;
69170;SDS011;56279;47.902;12.308;2023-04-08T07:57:11;16.17;;;8.82;;
69170;SDS011;56279;47.902;12.308;2023-04-08T07:59:13;16.00;;;8.80;;
69170;SDS011;56279;47.902;12.308;2023-04-08T08:01:20;16.98;;;8.07;;
69170;SDS011;56279;47.902;12.308;2023-04-08T08:03:23;17.08;;;9.02;;
69170;SDS011;56279;47.902;12.308;2023-04-08T08:05:25;16.02;;;8.68;;
69170;SDS011;56279;47.902;12.308;2023-04-08T08:07:28;16.23;;;8.73;;
69170;SDS011;56279;47.902;12.308;2023-04-08T08:09:30;19.33;;;8.87;;
69170;SDS011;56279;47.902;12.308;2023-04-08T08:11:31;18.90;;;9.60;;
69170;SDS011;56279;47.902;12.308;2023-04-08T08:13:34;18.90;;;9.77;;
69170;SDS011;56279;47.902;12.308;2023-04-08T08:15:36;16.83;;;9.38;;
69170;SDS011;56279;47.902;12.308;2023-04-08T08:17:38;17.30;;;8.48;;
69170;SDS011;56279;47.902;12.308;2023-04-08T08:19:40;17.50;;;8.30;;
69170;SDS011;56279;47.902;12.308;2023-04-08T08:21:41;17.63;;;9.07;;
69170;SDS011;56279;47.902;12.308;2023-04-08T08:23:42;15.93;;;8.73;;
69170;SDS011;56279;47.902;12.308;2023-04-08T08:25:44;18.10;;;9.32;;
69170;SDS011;56279;47.902;12.308;2023-04-08T08:27:46;20.85;;;9.35;;
69170;SDS011;56279;47.902;12.308;2023-04-08T08:29:47;16.23;;;8.90;;
69170;SDS011;56279;47.902;12.308;2023-04-08T08:31:50;15.73;;;7.47;;
69170;SDS011;56279;47.902;12.308;2023-04-08T08:33:52;19.42;;;9.18;;
69170;SDS011;56279;47.902;12.308;2023-04-08T08:35:54;18.42;;;9.00;;
69170;SDS011;56279;47.902;12.308;2023-04-08T08:37:59;18.02;;;9.30;;
69170;SDS011;56279;47.902;12.308;2023-04-08T08:40:02;14.23;;;7.50;;
69170;SDS011;56279;47.902;12.308;2023-04-08T08:42:03;17.83;;;8.65;;
69170;SDS011;56279;47.902;12.308;2023-04-08T08:44:05;21.15;;;9.43;;
69170;SDS011;56279;47.902;12.308;2023-04-08T08:46:09;14.77;;;7.88;;
69170;SDS011;56279;47.902;12.308;2023-04-08T08:48:12;19.20;;;9.30;;
69170;SDS011;56279;47.902;12.308;2023-04-08T08:50:13;18.30;;;9.17;;
69170;SDS011;56279;47.902;12.308;2023-04-08T08:52:15;15.50;;;8.07;;
69170;SDS011;56279;47.902;12.308;2023-04-08T08:54:19;15.23;;;8.95;;
69170;SDS011;56279;47.902;12.308;2023-04-08T08:56:21;19.40;;;8.73;;
69170;SDS011;56279;47.902;12.308;2023-04-08T08:58:25;18.88;;;9.88;;
69170;SDS011;56279;47.902;12.308;2023-04-08T09:00:34;16.93;;;8.90;;
69170;SDS011;56279;47.902;12.308;2023-04-08T09:02:39;16.75;;;8.73;;
69170;SDS011;56279;47.902;12.308;2023-04-08T09:04:41;15.35;;;8.52;;
69170;SDS011;56279;47.902;12.308;2023-04-08T09:07:09;15.32;;;8.25;;
69170;SDS011;56279;47.902;12.308;2023-04-08T09:09:13;16.95;;;8.23;;
69170;SDS011;56279;47.902;12.308;2023-04-08T09:11:16;15.23;;;9.10;;
69170;SDS011;56279;47.902;12.308;2023-04-08T09:13:19;17.90;;;9.55;;
69170;SDS011;56279;47.902;12.308;2023-04-08T09:15:23;14.98;;;8.93;;
69170;SDS011;56279;47.902;12.308;2023-04-08T09:17:31;17.33;;;9.20;;
69170;SDS011;56279;47.902;12.308;2023-04-08T09:19:37;23.92;;;11.25;;
69170;SDS011;56279;47.902;12.308;2023-04-08T09:21:38;22.63;;;11.70;;
69170;SDS011;56279;47.902;12.308;2023-04-08T09:23:46;17.88;;;9.52;;
69170;SDS011;56279;47.902;12.308;2023-04-08T09:25:49;17.30;;;9.32;;
69170;SDS011;56279;47.902;12.308;2023-04-08T09:27:50;21.13;;;11.30;;
69170;SDS011;56279;47.902;12.308;2023-04-08T09:29:53;19.83;;;10.00;;
69170;SDS011;56279;47.902;12.308;2023-04-08T09:32:13;18.30;;;9.93;;
69170;SDS011;56279;47.902;12.308;2023-04-08T09:34:14;16.95;;;9.25;;
69170;SDS011;56279;47.902;12.308;2023-04-08T09:36:17;18.73;;;9.63;;
69170;SDS011;56279;47.902;12.308;2023-04-08T09:38:24;17.50;;;9.65;;
69170;SDS011;56279;47.902;12.308;2023-04-08T09:40:25;18.83;;;10.05;;
69170;SDS011;56279;47.902;12.308;2023-04-08T09:42:27;18.20;;;9.37;;
69170;SDS011;56279;47.902;12.308;2023-04-08T09:44:29;18.88;;;9.23;;
69170;SDS011;56279;47.902;12.308;2023-04-08T09:46:44;17.90;;;10.23;;
69170;SDS011;56279;47.902;12.308;2023-04-08T09:49:06;16.75;;;8.88;;
69170;SDS011;56279;47.902;12.308;2023-04-08T09:51:11;15.13;;;9.27;;
69170;SDS011;56279;47.902;12.308;2023-04-08T09:53:29;15.77;;;9.23;;
69170;SDS011;56279;47.902;12.308;2023-04-08T09:55:38;16.45;;;9.23;;
69170;SDS011;56279;47.902;12.308;2023-04-08T09:57:43;15.93;;;8.73;;
69170;SDS011;56279;47.902;12.308;2023-04-08T10:00:15;18.65;;;10.43;;
69170;SDS011;56279;47.902;12.308;2023-04-08T10:02:18;19.45;;;10.48;;
69170;SDS011;56279;47.902;12.308;2023-04-08T10:04:34;15.27;;;9.40;;
69170;SDS011;56279;47.902;12.308;2023-04-08T10:06:39;15.02;;;8.57;;
69170;SDS011;56279;47.902;12.308;2023-04-08T10:08:41;19.25;;;10.05;;
69170;SDS011;56279;47.902;12.308;2023-04-08T10:10:43;16.42;;;9.20;;
69170;SDS011;56279;47.902;12.308;2023-04-08T10:12:46;26.90;;;12.95;;
69170;SDS011;56279;47.902;12.308;2023-04-08T10:17:26;18.95;;;9.98;;
69170;SDS011;56279;47.902;12.308;2023-04-08T10:19:39;18.83;;;9.70;;
69170;SDS011;56279;47.902;12.308;2023-04-08T10:21:41;17.17;;;9.60;;
69170;SDS011;56279;47.902;12.308;2023-04-08T10:23:54;14.57;;;8.65;;
69170;SDS011;56279;47.902;12.308;2023-04-08T10:25:59;20.27;;;11.20;;
69170;SDS011;56279;47.902;12.308;2023-04-08T10:28:01;16.38;;;9.35;;
69170;SDS011;56279;47.902;12.308;2023-04-08T10:32:31;17.42;;;9.95;;
69170;SDS011;56279;47.902;12.308;2023-04-08T10:34:50;18.55;;;10.27;;
69170;SDS011;56279;47.902;12.308;2023-04-08T10:36:54;14.83;;;8.43;;
69170;SDS011;56279;47.902;12.308;2023-04-08T10:38:56;15.10;;;8.73;;
69170;SDS011;56279;47.902;12.308;2023-04-08T10:40:58;19.23;;;10.45;;
69170;SDS011;56279;47.902;12.308;2023-04-08T10:42:59;17.45;;;9.73;;
69170;SDS011;56279;47.902;12.308;2023-04-08T10:45:03;17.27;;;9.35;;
69170;SDS011;56279;47.902;12.308;2023-04-08T10:47:05;15.90;;;9.30;;
69170;SDS011;56279;47.902;12.308;2023-04-08T10:49:08;17.98;;;10.55;;
69170;SDS011;56279;47.902;12.308;2023-04-08T10:51:09;17.80;;;10.02;;
69170;SDS011;56279;47.902;12.308;2023-04-08T10:53:11;17.98;;;9.63;;
69170;SDS011;56279;47.902;12.308;2023-04-08T10:55:12;16.23;;;9.27;;
69170;SDS011;56279;47.902;12.308;2023-04-08T10:57:14;19.20;;;10.27;;
69170;SDS011;56279;47.902;12.308;2023-04-08T10:59:17;17.55;;;10.20;;
69170;SDS011;56279;47.902;12.308;2023-04-08T11:01:36;18.40;;;9.52;;
69170;SDS011;56279;47.902;12.308;2023-04-08T11:03:40;15.93;;;9.40;;
69170;SDS011;56279;47.902;12.308;2023-04-08T11:05:43;16.63;;;9.25;;
69170;SDS011;56279;47.902;12.308;2023-04-08T11:07:44;16.77;;;9.57;;
69170;SDS011;56279;47.902;12.308;2023-04-08T11:09:47;18.63;;;10.55;;
69170;SDS011;56279;47.902;12.308;2023-04-08T11:11:49;19.02;;;9.95;;
69170;SDS011;56279;47.902;12.308;2023-04-08T11:13:52;19.27;;;10.93;;
69170;SDS011;56279;47.902;12.308;2023-04-08T11:15:54;18.40;;;10.73;;
69170;SDS011;56279;47.902;12.308;2023-04-08T11:17:56;18.80;;;9.60;;
69170;SDS011;56279;47.902;12.308;2023-04-08T11:19:57;18.27;;;8.68;;
69170;SDS011;56279;47.902;12.308;2023-04-08T11:22:02;18.48;;;10.32;;
69170;SDS011;56279;47.902;12.308;2023-04-08T11:24:06;18.42;;;9.13;;
69170;SDS011;56279;47.902;12.308;2023-04-08T11:26:10;17.60;;;9.75;;
69170;SDS011;56279;47.902;12.308;2023-04-08T11:28:11;18.23;;;10.10;;
69170;SDS011;56279;47.902;12.308;2023-04-08T11:30:14;16.35;;;9.25;;
69170;SDS011;56279;47.902;12.308;2023-04-08T11:32:15;19.70;;;10.43;;
69170;SDS011;56279;47.902;12.308;2023-04-08T11:34:23;16.83;;;9.93;;
69170;SDS011;56279;47.902;12.308;2023-04-08T11:36:27;15.40;;;9.18;;
69170;SDS011;56279;47.902;12.308;2023-04-08T11:38:29;16.53;;;9.70;;
69170;SDS011;56279;47.902;12.308;2023-04-08T11:40:30;15.90;;;8.85;;
69170;SDS011;56279;47.902;12.308;2023-04-08T11:42:32;18.98;;;10.82;;
69170;SDS011;56279;47.902;12.308;2023-04-08T11:44:34;18.77;;;10.30;;
69170;SDS011;56279;47.902;12.308;2023-04-08T11:46:35;18.90;;;11.10;;
69170;SDS011;56279;47.902;12.308;2023-04-08T11:48:37;16.23;;;9.47;;
69170;SDS011;56279;47.902;12.308;2023-04-08T11:50:39;20.02;;;10.77;;
69170;SDS011;56279;47.902;12.308;2023-04-08T11:52:50;19.25;;;10.35;;
69170;SDS011;56279;47.902;12.308;2023-04-08T11:54:53;19.75;;;11.32;;
69170;SDS011;56279;47.902;12.308;2023-04-08T11:56:55;17.08;;;9.43;;
69170;SDS011;56279;47.902;12.308;2023-04-08T11:58:58;17.53;;;10.20;;
69170;SDS011;56279;47.902;12.308;2023-04-08T12:00:59;20.60;;;11.02;;
69170;SDS011;56279;47.902;12.308;2023-04-08T12:03:02;18.15;;;9.98;;
69170;SDS011;56279;47.902;12.308;2023-04-08T12:05:03;19.10;;;11.13;;
69170;SDS011;56279;47.902;12.308;2023-04-08T12:07:05;16.30;;;9.38;;
69170;SDS011;56279;47.902;12.308;2023-04-08T12:11:42;18.38;;;10.27;;
69170;SDS011;56279;47.902;12.308;2023-04-08T12:13:43;18.40;;;10.07;;
69170;SDS011;56279;47.902;12.308;2023-04-08T12:15:45;16.70;;;9.50;;
69170;SDS011;56279;47.902;12.308;2023-04-08T12:17:46;18.13;;;10.20;;